createdAt,value
2022-10-10T00:01:11.991Z,12.15
2022-10-10T00:04:00.656Z,7.00
2022-10-10T00:06:48.593Z,8.52
2022-10-10T00:09:36.551Z,7.78
2022-10-10T00:12:24.692Z,7.07
2022-10-10T00:15:16.618Z,7.10
2022-10-10T00:18:05.035Z,6.88
2022-10-10T00:20:53.805Z,10.32
2022-10-10T00:23:42.092Z,9.13
2022-10-10T00:26:30.257Z,9.57
2022-10-10T00:29:18.118Z,8.57
2022-10-10T00:32:06.246Z,5.68
2022-10-10T00:35:09.172Z,5.82
2022-10-10T00:38:03.594Z,6.30
2022-10-10T00:40:55.003Z,6.90
2022-10-10T00:43:43.013Z,8.57
2022-10-10T00:46:31.221Z,8.13
2022-10-10T00:49:25.383Z,7.10
2022-10-10T00:55:01.492Z,8.57
2022-10-10T00:57:50.701Z,8.45
2022-10-10T01:00:38.890Z,10.18
2022-10-10T01:03:27.095Z,10.38
2022-10-10T01:06:17.861Z,7.65
2022-10-10T01:09:05.861Z,8.20
2022-10-10T01:12:24.503Z,7.85
2022-10-10T01:15:40.096Z,8.32
2022-10-10T01:18:52.183Z,7.75
2022-10-10T01:22:23.282Z,7.00
2022-10-10T01:25:29.793Z,8.07
2022-10-10T01:28:32.683Z,8.00
2022-10-10T01:31:24.674Z,10.38
2022-10-10T01:35:02.565Z,10.15
2022-10-10T01:38:09.016Z,6.53
2022-10-10T01:41:32.555Z,9.20
2022-10-10T01:44:22.664Z,7.70
2022-10-10T01:47:14.920Z,8.38
2022-10-10T01:50:10.298Z,9.65
2022-10-10T01:53:20.488Z,6.65
2022-10-10T01:56:34.406Z,6.85
2022-10-10T01:59:51.303Z,6.50
2022-10-10T02:03:02.546Z,9.10
2022-10-10T02:06:21.426Z,9.80
2022-10-10T02:09:22.452Z,9.43
2022-10-10T02:12:27.188Z,9.85
2022-10-10T02:15:33.408Z,10.60
2022-10-10T02:18:36.648Z,8.35
2022-10-10T02:21:47.236Z,10.43
2022-10-10T02:28:49.804Z,8.27
2022-10-10T02:32:03.791Z,8.52
2022-10-10T02:34:57.103Z,9.52
2022-10-10T02:37:47.328Z,8.03
2022-10-10T02:40:36.981Z,8.65
2022-10-10T02:43:29.412Z,8.55
2022-10-10T02:46:18.121Z,10.35
2022-10-10T02:49:09.177Z,11.25
2022-10-10T02:51:57.777Z,7.22
2022-10-10T02:54:45.804Z,7.72
2022-10-10T02:57:33.805Z,7.72
2022-10-10T03:00:22.016Z,8.18
2022-10-10T03:03:10.483Z,10.35
2022-10-10T03:05:58.584Z,11.80
2022-10-10T03:08:46.678Z,9.38
2022-10-10T03:11:34.755Z,8.90
2022-10-10T03:14:23.068Z,10.68
2022-10-10T03:17:14.095Z,7.25
2022-10-10T03:20:04.176Z,7.53
2022-10-10T03:22:52.423Z,10.68
2022-10-10T03:25:45.458Z,7.43
2022-10-10T03:28:33.817Z,10.73
2022-10-10T03:31:22.033Z,8.20
2022-10-10T03:34:12.547Z,8.68
2022-10-10T03:37:00.503Z,8.20
2022-10-10T03:39:48.998Z,8.60
2022-10-10T03:42:37.164Z,7.63
2022-10-10T03:45:25.734Z,12.38
2022-10-10T03:48:14.917Z,10.23
2022-10-10T03:51:02.980Z,9.57
2022-10-10T03:53:50.979Z,9.25
2022-10-10T03:56:39.371Z,6.97
2022-10-10T03:59:27.360Z,8.82
2022-10-10T04:02:15.400Z,7.95
2022-10-10T04:05:04.704Z,10.90
2022-10-10T04:08:00.312Z,10.57
2022-10-10T04:10:50.686Z,11.68
2022-10-10T04:13:38.687Z,8.95
2022-10-10T04:16:26.690Z,9.77
2022-10-10T04:19:15.141Z,10.70
2022-10-10T04:22:04.644Z,9.57
2022-10-10T04:24:57.211Z,9.43
2022-10-10T04:27:45.478Z,11.75
2022-10-10T04:30:35.548Z,11.50
2022-10-10T04:33:24.093Z,15.80
2022-10-10T04:36:12.200Z,10.20
2022-10-10T04:39:02.796Z,11.30
2022-10-10T04:41:50.948Z,10.90
2022-10-10T04:44:38.963Z,10.38
2022-10-10T04:47:26.898Z,9.85
2022-10-10T04:50:15.048Z,8.27
2022-10-10T04:53:03.365Z,10.27
2022-10-10T04:55:54.402Z,11.43
2022-10-10T04:58:42.695Z,12.45
2022-10-10T05:01:34.749Z,9.80
2022-10-10T05:04:22.853Z,14.02
2022-10-10T05:07:10.953Z,11.18
2022-10-10T05:09:59.336Z,12.43
2022-10-10T05:12:51.156Z,10.48
2022-10-10T05:15:43.182Z,12.75
2022-10-10T05:18:31.833Z,11.05
2022-10-10T05:21:54.510Z,12.82
2022-10-10T05:24:46.922Z,12.40
2022-10-10T05:27:35.008Z,13.32
2022-10-10T05:30:23.314Z,13.43
2022-10-10T05:33:11.386Z,15.52
2022-10-10T05:36:05.279Z,11.07
2022-10-10T05:38:53.323Z,11.88
2022-10-10T05:41:41.094Z,12.88
2022-10-10T05:44:28.952Z,13.30
2022-10-10T05:47:26.750Z,11.57
2022-10-10T05:50:36.355Z,13.88
2022-10-10T05:53:26.462Z,13.45
2022-10-10T05:56:17.012Z,10.55
2022-10-10T05:59:05.055Z,8.50
2022-10-10T06:01:52.865Z,11.65
2022-10-10T06:04:40.743Z,14.02
2022-10-10T06:07:45.520Z,15.75
2022-10-10T06:10:44.313Z,11.68
2022-10-10T06:13:32.744Z,18.00
2022-10-10T06:16:22.525Z,12.38
2022-10-10T06:19:14.914Z,10.70
2022-10-10T06:22:03.058Z,14.77
2022-10-10T06:24:53.017Z,11.30
2022-10-10T06:27:41.088Z,11.60
2022-10-10T06:30:29.264Z,13.02
2022-10-10T06:33:19.442Z,17.10
2022-10-10T06:36:08.809Z,14.52
2022-10-10T06:38:59.705Z,13.98
2022-10-10T06:41:49.667Z,15.75
2022-10-10T06:44:37.644Z,12.52
2022-10-10T06:47:25.625Z,12.98
2022-10-10T06:50:13.473Z,17.23
2022-10-10T06:53:04.116Z,22.48
2022-10-10T06:55:55.416Z,18.67
2022-10-10T06:58:43.794Z,12.80
2022-10-10T07:01:31.741Z,9.95
2022-10-10T07:04:19.691Z,10.02
2022-10-10T07:07:07.798Z,11.57
2022-10-10T07:09:55.642Z,11.00
2022-10-10T07:12:45.177Z,10.05
2022-10-10T07:15:33.468Z,14.82
2022-10-10T07:18:21.998Z,11.98
2022-10-10T07:21:10.203Z,8.77
2022-10-10T07:23:58.166Z,6.90
2022-10-10T07:26:46.162Z,7.95
2022-10-10T07:29:34.299Z,9.68
2022-10-10T07:32:22.499Z,9.52
2022-10-10T07:35:14.259Z,7.78
2022-10-10T07:38:03.013Z,8.10
2022-10-10T07:40:50.964Z,7.75
2022-10-10T07:43:39.573Z,12.70
2022-10-10T07:46:27.605Z,7.88
2022-10-10T07:49:16.617Z,6.60
2022-10-10T07:52:09.395Z,8.18
2022-10-10T07:54:57.485Z,8.52
2022-10-10T07:57:47.814Z,9.82
2022-10-10T08:00:40.925Z,16.80
2022-10-10T08:03:28.910Z,8.73
2022-10-10T08:06:18.291Z,12.82
2022-10-10T08:09:09.181Z,8.60
2022-10-10T08:11:57.073Z,12.55
2022-10-10T08:14:45.189Z,9.63
2022-10-10T08:17:33.867Z,10.23
2022-10-10T08:20:24.465Z,9.43
2022-10-10T08:23:13.282Z,14.25
2022-10-10T08:26:03.667Z,14.60
2022-10-10T08:28:51.685Z,8.73
2022-10-10T08:31:40.805Z,10.95
2022-10-10T08:34:29.132Z,11.32
2022-10-10T08:37:19.979Z,13.23
2022-10-10T08:40:10.286Z,13.70
2022-10-10T08:43:05.343Z,15.55
2022-10-10T08:45:57.636Z,13.57
2022-10-10T08:48:48.093Z,14.38
2022-10-10T08:51:36.075Z,11.73
2022-10-10T08:54:27.478Z,10.00
2022-10-10T08:57:44.743Z,13.85
2022-10-10T09:00:40.917Z,15.27
2022-10-10T09:03:43.867Z,9.73
2022-10-10T09:07:08.441Z,12.35
2022-10-10T09:10:24.378Z,14.88
2022-10-10T09:13:25.646Z,14.07
2022-10-10T09:16:37.455Z,15.70
2022-10-10T09:20:00.860Z,17.33
2022-10-10T09:23:06.293Z,19.80
2022-10-10T09:26:27.238Z,14.13
2022-10-10T09:29:23.933Z,18.23
2022-10-10T09:32:24.705Z,18.02
2022-10-10T09:35:28.803Z,18.30
2022-10-10T09:38:39.154Z,13.85
2022-10-10T09:41:52.319Z,13.98
2022-10-10T09:44:42.952Z,14.60
2022-10-10T09:47:30.901Z,14.18
2022-10-10T09:50:19.090Z,19.10
2022-10-10T09:53:07.086Z,17.13
2022-10-10T09:55:55.870Z,15.10
2022-10-10T09:58:50.131Z,15.45
2022-10-10T10:04:33.349Z,14.43
2022-10-10T10:07:50.312Z,15.15
2022-10-10T10:10:39.013Z,13.07
2022-10-10T10:13:34.358Z,14.55
2022-10-10T10:16:38.887Z,18.48
2022-10-10T10:22:38.898Z,14.55
2022-10-10T10:25:37.849Z,14.65
2022-10-10T10:28:26.359Z,16.73
2022-10-10T10:31:54.069Z,16.02
2022-10-10T10:34:50.834Z,16.30
2022-10-10T10:37:54.087Z,14.85
2022-10-10T10:40:46.440Z,16.30
2022-10-10T10:44:31.970Z,14.77
2022-10-10T10:48:01.236Z,14.32
2022-10-10T10:51:00.610Z,14.43
2022-10-10T10:54:45.639Z,13.57
2022-10-10T10:59:05.484Z,14.53
2022-10-10T11:01:55.876Z,13.02
2022-10-10T11:05:35.249Z,11.10
2022-10-10T11:08:47.325Z,15.05
2022-10-10T11:12:04.543Z,19.08
2022-10-10T11:15:03.891Z,14.82
2022-10-10T11:18:09.402Z,20.67
2022-10-10T11:21:16.902Z,12.30
2022-10-10T11:24:13.519Z,13.30
2022-10-10T11:27:10.207Z,12.18
2022-10-10T11:30:20.871Z,12.57
2022-10-10T11:33:18.268Z,15.75
2022-10-10T11:36:16.836Z,13.95
2022-10-10T11:39:20.704Z,15.05
2022-10-10T11:42:24.930Z,12.93
2022-10-10T11:45:28.740Z,12.07
2022-10-10T11:48:32.471Z,13.90
2022-10-10T11:51:44.240Z,13.07
2022-10-10T11:54:50.458Z,14.10
2022-10-10T11:57:47.511Z,11.57
2022-10-10T12:00:48.639Z,12.70
2022-10-10T12:03:36.517Z,13.07
2022-10-10T12:06:47.325Z,11.48
2022-10-10T12:09:43.885Z,16.20
2022-10-10T12:12:39.949Z,16.02
2022-10-10T12:15:38.539Z,13.32
2022-10-10T12:18:40.073Z,17.23
2022-10-10T12:21:30.902Z,11.65
2022-10-10T12:24:19.574Z,10.68
2022-10-10T12:27:07.495Z,11.88
2022-10-10T12:29:55.327Z,16.42
2022-10-10T12:32:45.228Z,17.55
2022-10-10T12:35:41.608Z,12.70
2022-10-10T12:38:29.488Z,16.13
2022-10-10T12:41:17.643Z,11.93
2022-10-10T12:44:34.156Z,17.15
2022-10-10T12:47:52.609Z,12.88
2022-10-10T12:50:43.157Z,11.50
2022-10-10T12:53:34.392Z,11.27
2022-10-10T12:56:35.900Z,16.05
2022-10-10T12:59:25.324Z,14.82
2022-10-10T13:02:25.791Z,13.30
2022-10-10T13:05:19.285Z,14.80
2022-10-10T13:08:18.489Z,11.43
2022-10-10T13:11:16.035Z,12.30
2022-10-10T13:14:08.796Z,10.68
2022-10-10T13:16:59.619Z,13.00
2022-10-10T13:19:47.750Z,13.27
2022-10-10T13:22:37.223Z,10.05
2022-10-10T13:25:25.567Z,12.73
2022-10-10T13:28:19.730Z,12.40
2022-10-10T13:34:06.323Z,9.40
2022-10-10T13:36:57.278Z,10.90
2022-10-10T13:39:45.828Z,7.93
2022-10-10T13:42:39.404Z,14.90
2022-10-10T13:45:37.384Z,11.10
2022-10-10T13:48:39.528Z,9.43
2022-10-10T13:51:47.951Z,8.90
2022-10-10T13:54:41.023Z,14.32
2022-10-10T13:57:29.001Z,5.68
2022-10-10T14:00:23.109Z,12.38
2022-10-10T14:06:05.204Z,10.33
2022-10-10T14:08:57.206Z,11.98
2022-10-10T14:11:45.252Z,7.00
2022-10-10T14:14:47.934Z,12.18
2022-10-10T14:17:35.895Z,14.25
2022-10-10T14:20:24.241Z,10.57
2022-10-10T14:23:13.071Z,8.68
2022-10-10T14:26:03.786Z,9.02
2022-10-10T14:28:51.757Z,10.50
2022-10-10T14:31:40.593Z,11.50
2022-10-10T14:34:28.685Z,15.20
2022-10-10T14:37:26.900Z,7.25
2022-10-10T14:40:21.660Z,9.35
2022-10-10T14:43:09.728Z,12.52
2022-10-10T14:45:57.930Z,9.40
2022-10-10T14:48:46.926Z,11.88
2022-10-10T14:51:38.389Z,16.33
2022-10-10T14:54:26.460Z,7.82
2022-10-10T14:57:16.087Z,10.00
2022-10-10T15:00:14.068Z,11.45
2022-10-10T15:03:01.963Z,11.13
2022-10-10T15:05:50.945Z,9.73
2022-10-10T15:08:38.946Z,12.25
2022-10-10T15:11:27.043Z,12.25
2022-10-10T15:14:14.913Z,13.73
2022-10-10T15:17:02.939Z,15.30
2022-10-10T15:19:50.811Z,10.30
2022-10-10T15:22:39.442Z,8.43
2022-10-10T15:25:33.388Z,12.75
2022-10-10T15:28:22.107Z,10.52
2022-10-10T15:31:09.997Z,11.05
2022-10-10T15:33:58.015Z,10.25
2022-10-10T15:36:47.001Z,14.05
2022-10-10T15:39:38.330Z,11.95
2022-10-10T15:42:28.997Z,11.07
2022-10-10T15:45:36.884Z,14.25
2022-10-10T15:48:26.352Z,12.43
2022-10-10T15:51:15.042Z,16.23
2022-10-10T15:54:03.293Z,8.88
2022-10-10T15:56:51.432Z,12.48
2022-10-10T15:59:41.987Z,11.30
2022-10-10T16:02:32.210Z,14.18
2022-10-10T16:05:20.117Z,11.23
2022-10-10T16:08:12.115Z,17.83
2022-10-10T16:11:12.329Z,15.82
2022-10-10T16:14:00.308Z,16.13
2022-10-10T16:16:48.482Z,15.15
2022-10-10T16:19:36.606Z,15.02
2022-10-10T16:22:28.993Z,14.65
2022-10-10T16:25:22.191Z,18.95
2022-10-10T16:28:10.946Z,18.37
2022-10-10T16:31:03.489Z,9.40
2022-10-10T16:33:52.010Z,14.40
2022-10-10T16:36:40.020Z,13.85
2022-10-10T16:39:27.980Z,12.18
2022-10-10T16:42:16.019Z,15.23
2022-10-10T16:45:04.711Z,17.67
2022-10-10T16:47:58.246Z,16.08
2022-10-10T16:50:46.115Z,19.42
2022-10-10T16:53:34.967Z,19.80
2022-10-10T16:56:22.958Z,15.52
2022-10-10T16:59:10.909Z,25.85
2022-10-10T17:01:58.820Z,15.15
2022-10-10T17:04:46.850Z,11.23
2022-10-10T17:07:37.858Z,14.38
2022-10-10T17:10:27.251Z,14.70
2022-10-10T17:13:15.171Z,16.10
2022-10-10T17:16:47.933Z,17.63
2022-10-10T17:22:05.505Z,13.02
2022-10-10T17:24:53.321Z,15.15
2022-10-10T17:27:43.747Z,15.48
2022-10-10T17:30:31.631Z,12.82
2022-10-10T17:33:20.209Z,15.77
2022-10-10T17:36:11.438Z,15.38
2022-10-10T17:39:02.478Z,19.40
2022-10-10T17:41:50.322Z,20.83
2022-10-10T17:44:44.782Z,16.33
2022-10-10T17:47:36.925Z,19.13
2022-10-10T17:50:25.070Z,19.35
2022-10-10T17:53:13.053Z,17.65
2022-10-10T17:56:01.263Z,19.45
2022-10-10T17:58:50.408Z,22.55
2022-10-10T18:01:39.563Z,19.58
2022-10-10T18:04:27.992Z,29.58
2022-10-10T18:07:18.549Z,27.00
2022-10-10T18:10:08.034Z,21.58
2022-10-10T18:12:57.141Z,23.75
2022-10-10T18:15:58.572Z,22.85
2022-10-10T18:18:53.316Z,23.23
2022-10-10T18:21:41.158Z,24.50
2022-10-10T18:24:29.379Z,29.00
2022-10-10T18:27:17.291Z,21.48
2022-10-10T18:30:06.008Z,24.83
2022-10-10T18:32:53.856Z,17.95
2022-10-10T18:35:45.035Z,18.13
2022-10-10T18:38:34.218Z,23.38
2022-10-10T18:41:30.766Z,18.98
2022-10-10T18:54:50.377Z,21.80
2022-10-10T18:57:38.890Z,23.70
2022-10-10T19:00:26.916Z,26.98
2022-10-10T19:03:16.210Z,21.23
2022-10-10T19:06:13.635Z,31.08
2022-10-10T19:09:03.473Z,23.35
2022-10-10T19:11:53.287Z,23.70
2022-10-10T19:14:41.516Z,23.95
2022-10-10T19:17:32.017Z,23.33
2022-10-10T19:20:19.945Z,21.70
2022-10-10T19:23:07.938Z,24.95
2022-10-10T19:25:56.147Z,16.30
2022-10-10T19:28:53.906Z,14.20
2022-10-10T19:31:41.893Z,23.75
2022-10-10T19:34:29.777Z,23.48
2022-10-10T19:40:45.262Z,13.85
2022-10-10T19:43:33.388Z,29.73
2022-10-10T19:46:23.265Z,17.67
2022-10-10T19:49:18.975Z,18.90
2022-10-10T19:52:13.916Z,18.33
2022-10-10T19:55:09.125Z,16.10
2022-10-10T19:58:14.397Z,18.35
2022-10-10T20:01:12.861Z,23.75
2022-10-10T20:04:03.880Z,24.27
2022-10-10T20:06:54.041Z,18.42
2022-10-10T20:09:42.250Z,21.00
2022-10-10T20:12:30.702Z,14.00
2022-10-10T20:15:18.692Z,23.65
2022-10-10T20:18:06.769Z,20.38
2022-10-10T20:20:54.661Z,19.85
2022-10-10T20:23:47.237Z,18.08
2022-10-10T20:26:37.494Z,17.50
2022-10-10T20:29:25.330Z,18.38
2022-10-10T20:32:15.949Z,21.60
2022-10-10T20:35:03.896Z,25.17
2022-10-10T20:37:51.784Z,18.88
2022-10-10T20:40:41.727Z,26.98
2022-10-10T20:43:33.771Z,21.02
2022-10-10T20:46:21.725Z,21.20
2022-10-10T20:49:20.775Z,17.88
2022-10-10T20:52:13.879Z,19.67
2022-10-10T20:55:04.284Z,18.50
2022-10-10T20:57:53.434Z,16.70
2022-10-10T21:00:46.474Z,18.50
2022-10-10T21:03:34.786Z,22.92
2022-10-10T21:06:27.878Z,17.83
2022-10-10T21:09:17.833Z,16.30
2022-10-10T21:12:06.023Z,16.42
2022-10-10T21:14:54.115Z,22.08
2022-10-10T21:17:42.287Z,15.20
2022-10-10T21:20:30.195Z,16.48
2022-10-10T21:23:18.210Z,19.30
2022-10-10T21:26:18.272Z,18.55
2022-10-10T21:29:06.644Z,18.95
2022-10-10T21:31:57.742Z,17.55
2022-10-10T21:34:51.922Z,15.00
2022-10-10T21:37:44.396Z,15.32
2022-10-10T21:40:32.455Z,12.13
2022-10-10T21:43:21.888Z,14.40
2022-10-10T21:46:16.428Z,14.38
2022-10-10T21:49:11.506Z,16.30
2022-10-10T21:52:01.640Z,17.52
2022-10-10T21:54:51.278Z,14.27
2022-10-10T21:57:41.485Z,12.88
2022-10-10T22:00:29.412Z,18.67
2022-10-10T22:03:17.469Z,19.00
2022-10-10T22:06:11.730Z,19.20
2022-10-10T22:11:48.248Z,21.15
2022-10-10T22:14:36.129Z,12.75
2022-10-10T22:17:24.458Z,13.02
2022-10-10T22:20:13.533Z,12.05
2022-10-10T22:23:04.295Z,19.15
2022-10-10T22:25:53.971Z,13.00
2022-10-10T22:28:42.529Z,15.25
2022-10-10T22:31:30.809Z,14.00
2022-10-10T22:34:19.025Z,21.63
2022-10-10T22:37:08.112Z,14.38
2022-10-10T22:40:05.659Z,19.40
2022-10-10T22:43:33.299Z,15.68
2022-10-10T22:47:13.236Z,18.60
2022-10-10T22:58:35.279Z,17.05
2022-10-10T23:02:46.689Z,17.40
2022-10-10T23:11:06.215Z,20.20
2022-10-10T23:14:41.265Z,16.73
2022-10-10T23:18:39.840Z,20.17
2022-10-10T23:22:48.513Z,16.48
2022-10-10T23:30:23.560Z,18.98
2022-10-10T23:34:35.271Z,16.63
2022-10-10T23:54:05.378Z,21.05
2022-10-10T23:57:57.410Z,25.13
